Huvudsida
METAR-TAF:

METAR-TAF

Flygplatser :

Sørkjosens flygplats

Sørkjosen, Norge

latitud: 69-47N, longitud: 020-58E, höjd: 0 m

Aktuellt väderrapport

Denna rapport gjordes för 19 timmar och 24 minuter sedan, klockan 17:50 UTC
Vind 5 kt från ost, varierande mellan nordost och syd/sydost
Temperatur 11°C
Fuktighet 87%
Tryck 1004 hPa
Sikt 10 km eller mer
Få moln på en höjd av 1000 ft
Spridda moln på en höjd av 5000 ft

METAR: ENSR 161750Z 28003KT 210V340 9999 FEW010 SCT050 11/09 Q1004 WIND 1119FT 09005KT 050V150

Tid: 15:14 (13:14 UTC)


TAF: saknas

Aktuella väderrapporter och prognoser från 4000 flygplatser (METAR- och TAF-rapporter).

De tillgängliga stationerna syns som gula och röda prickar på kartan.

För musen över prickarna för att se namnen på stationerna.

Klicka sedan för att få väderrapporter och prognoser.

För att ändra kartan: Klicka på de gröna knapparna med ett svart kors på för att zooma in; den gröna knappen med ett streck på för att zooma ut; eller på de gröna pilarna för angränsande kartor.


METAR-TAF: